sensor_id;sensor_type;location;lat;lon;timestamp;P1;durP1;ratioP1;P2;durP2;ratioP2
41059;SDS011;26811;53.160;8.202;2023-07-08T00:01:47;16.10;;;7.82;;
41059;SDS011;26811;53.160;8.202;2023-07-08T00:06:47;16.52;;;8.38;;
41059;SDS011;26811;53.160;8.202;2023-07-08T00:11:49;18.23;;;8.87;;
41059;SDS011;26811;53.160;8.202;2023-07-08T00:16:50;18.13;;;8.18;;
41059;SDS011;26811;53.160;8.202;2023-07-08T00:21:51;18.42;;;8.85;;
41059;SDS011;26811;53.160;8.202;2023-07-08T00:26:52;20.30;;;8.10;;
41059;SDS011;26811;53.160;8.202;2023-07-08T00:31:52;45.65;;;9.68;;
41059;SDS011;26811;53.160;8.202;2023-07-08T00:36:56;21.35;;;8.98;;
41059;SDS011;26811;53.160;8.202;2023-07-08T00:41:56;17.50;;;9.50;;
41059;SDS011;26811;53.160;8.202;2023-07-08T00:52:20;18.13;;;8.68;;
41059;SDS011;26811;53.160;8.202;2023-07-08T00:57:29;17.75;;;10.18;;
41059;SDS011;26811;53.160;8.202;2023-07-08T01:02:33;18.98;;;10.55;;
41059;SDS011;26811;53.160;8.202;2023-07-08T01:07:38;22.08;;;10.80;;
41059;SDS011;26811;53.160;8.202;2023-07-08T01:12:43;19.20;;;9.60;;
41059;SDS011;26811;53.160;8.202;2023-07-08T01:17:46;24.45;;;11.02;;
41059;SDS011;26811;53.160;8.202;2023-07-08T01:22:46;25.58;;;11.43;;
41059;SDS011;26811;53.160;8.202;2023-07-08T01:27:48;27.50;;;11.70;;
41059;SDS011;26811;53.160;8.202;2023-07-08T01:32:57;24.05;;;10.93;;
41059;SDS011;26811;53.160;8.202;2023-07-08T01:38:02;26.77;;;10.93;;
41059;SDS011;26811;53.160;8.202;2023-07-08T01:43:05;21.05;;;11.55;;
41059;SDS011;26811;53.160;8.202;2023-07-08T01:48:07;20.52;;;10.55;;
41059;SDS011;26811;53.160;8.202;2023-07-08T01:53:12;25.55;;;11.18;;
41059;SDS011;26811;53.160;8.202;2023-07-08T01:58:16;23.80;;;11.38;;
41059;SDS011;26811;53.160;8.202;2023-07-08T02:03:16;26.95;;;11.93;;
41059;SDS011;26811;53.160;8.202;2023-07-08T02:08:17;23.35;;;11.57;;
41059;SDS011;26811;53.160;8.202;2023-07-08T02:13:19;19.83;;;12.27;;
41059;SDS011;26811;53.160;8.202;2023-07-08T02:18:21;25.77;;;13.07;;
41059;SDS011;26811;53.160;8.202;2023-07-08T02:23:24;23.67;;;11.95;;
41059;SDS011;26811;53.160;8.202;2023-07-08T02:28:25;21.52;;;11.77;;
41059;SDS011;26811;53.160;8.202;2023-07-08T02:33:26;19.75;;;11.73;;
41059;SDS011;26811;53.160;8.202;2023-07-08T02:38:32;22.88;;;12.48;;
41059;SDS011;26811;53.160;8.202;2023-07-08T02:43:33;22.58;;;13.27;;
41059;SDS011;26811;53.160;8.202;2023-07-08T02:48:33;25.92;;;12.65;;
41059;SDS011;26811;53.160;8.202;2023-07-08T02:53:34;26.60;;;13.43;;
41059;SDS011;26811;53.160;8.202;2023-07-08T02:58:35;36.72;;;13.32;;
41059;SDS011;26811;53.160;8.202;2023-07-08T03:03:36;27.55;;;12.98;;
41059;SDS011;26811;53.160;8.202;2023-07-08T03:08:38;27.50;;;13.30;;
41059;SDS011;26811;53.160;8.202;2023-07-08T03:13:38;35.85;;;14.60;;
41059;SDS011;26811;53.160;8.202;2023-07-08T03:18:39;23.20;;;13.27;;
41059;SDS011;26811;53.160;8.202;2023-07-08T03:23:47;23.27;;;12.80;;
41059;SDS011;26811;53.160;8.202;2023-07-08T03:28:48;27.80;;;12.45;;
41059;SDS011;26811;53.160;8.202;2023-07-08T03:33:49;25.52;;;13.23;;
41059;SDS011;26811;53.160;8.202;2023-07-08T03:38:53;24.58;;;13.88;;
41059;SDS011;26811;53.160;8.202;2023-07-08T03:43:57;25.50;;;13.48;;
41059;SDS011;26811;53.160;8.202;2023-07-08T03:48:57;24.58;;;13.55;;
41059;SDS011;26811;53.160;8.202;2023-07-08T03:53:58;22.90;;;13.27;;
41059;SDS011;26811;53.160;8.202;2023-07-08T03:58:59;23.40;;;13.30;;
41059;SDS011;26811;53.160;8.202;2023-07-08T04:04:00;28.42;;;14.65;;
41059;SDS011;26811;53.160;8.202;2023-07-08T04:09:01;25.02;;;13.38;;
41059;SDS011;26811;53.160;8.202;2023-07-08T04:14:01;24.20;;;13.60;;
41059;SDS011;26811;53.160;8.202;2023-07-08T04:19:02;27.45;;;14.07;;
41059;SDS011;26811;53.160;8.202;2023-07-08T04:24:02;27.27;;;13.38;;
41059;SDS011;26811;53.160;8.202;2023-07-08T04:29:03;29.63;;;13.77;;
41059;SDS011;26811;53.160;8.202;2023-07-08T04:34:03;24.98;;;12.68;;
41059;SDS011;26811;53.160;8.202;2023-07-08T04:39:06;20.40;;;12.00;;
41059;SDS011;26811;53.160;8.202;2023-07-08T04:44:08;24.45;;;11.88;;
41059;SDS011;26811;53.160;8.202;2023-07-08T04:49:10;24.63;;;12.32;;
41059;SDS011;26811;53.160;8.202;2023-07-08T04:54:11;20.52;;;12.32;;
41059;SDS011;26811;53.160;8.202;2023-07-08T04:59:16;22.75;;;11.95;;
41059;SDS011;26811;53.160;8.202;2023-07-08T05:04:18;23.25;;;12.43;;
41059;SDS011;26811;53.160;8.202;2023-07-08T05:09:20;27.80;;;11.75;;
41059;SDS011;26811;53.160;8.202;2023-07-08T05:14:23;24.25;;;10.98;;
41059;SDS011;26811;53.160;8.202;2023-07-08T06:21:28;20.95;;;9.93;;
41059;SDS011;26811;53.160;8.202;2023-07-08T06:33:33;19.77;;;9.70;;
41059;SDS011;26811;53.160;8.202;2023-07-08T07:13:01;18.77;;;8.90;;
41059;SDS011;26811;53.160;8.202;2023-07-08T08:14:56;22.42;;;10.40;;
41059;SDS011;26811;53.160;8.202;2023-07-08T08:26:35;23.63;;;10.10;;
41059;SDS011;26811;53.160;8.202;2023-07-08T08:55:10;22.60;;;9.43;;
41059;SDS011;26811;53.160;8.202;2023-07-08T09:00:14;18.65;;;8.93;;
41059;SDS011;26811;53.160;8.202;2023-07-08T09:05:20;16.50;;;8.63;;
41059;SDS011;26811;53.160;8.202;2023-07-08T09:15:46;16.67;;;8.75;;
41059;SDS011;26811;53.160;8.202;2023-07-08T09:20:47;15.57;;;8.57;;
41059;SDS011;26811;53.160;8.202;2023-07-08T09:25:59;20.97;;;9.60;;
41059;SDS011;26811;53.160;8.202;2023-07-08T09:36:25;21.63;;;8.18;;
41059;SDS011;26811;53.160;8.202;2023-07-08T09:41:29;16.87;;;7.93;;
41059;SDS011;26811;53.160;8.202;2023-07-08T09:46:37;17.52;;;7.97;;
41059;SDS011;26811;53.160;8.202;2023-07-08T09:51:38;15.90;;;7.68;;
41059;SDS011;26811;53.160;8.202;2023-07-08T09:56:40;18.37;;;8.27;;
41059;SDS011;26811;53.160;8.202;2023-07-08T10:01:43;13.82;;;7.70;;
41059;SDS011;26811;53.160;8.202;2023-07-08T10:11:51;12.48;;;7.47;;
41059;SDS011;26811;53.160;8.202;2023-07-08T10:16:55;13.15;;;7.70;;
41059;SDS011;26811;53.160;8.202;2023-07-08T10:33:36;17.08;;;7.65;;
41059;SDS011;26811;53.160;8.202;2023-07-08T10:43:41;13.55;;;7.32;;
41059;SDS011;26811;53.160;8.202;2023-07-08T10:49:31;15.32;;;7.90;;
41059;SDS011;26811;53.160;8.202;2023-07-08T10:54:51;15.90;;;7.78;;
41059;SDS011;26811;53.160;8.202;2023-07-08T11:05:38;11.52;;;7.25;;
41059;SDS011;26811;53.160;8.202;2023-07-08T11:10:46;18.45;;;7.60;;
41059;SDS011;26811;53.160;8.202;2023-07-08T11:16:01;14.77;;;7.63;;
41059;SDS011;26811;53.160;8.202;2023-07-08T11:21:21;9.18;;;7.53;;
41059;SDS011;26811;53.160;8.202;2023-07-08T11:31:53;12.20;;;7.30;;
41059;SDS011;26811;53.160;8.202;2023-07-08T11:36:54;14.00;;;7.63;;
41059;SDS011;26811;53.160;8.202;2023-07-08T11:42:35;11.00;;;7.50;;
41059;SDS011;26811;53.160;8.202;2023-07-08T11:47:38;11.93;;;7.68;;
41059;SDS011;26811;53.160;8.202;2023-07-08T11:52:49;11.00;;;7.28;;
41059;SDS011;26811;53.160;8.202;2023-07-08T11:57:53;11.63;;;7.35;;
41059;SDS011;26811;53.160;8.202;2023-07-08T12:02:58;11.18;;;7.07;;
41059;SDS011;26811;53.160;8.202;2023-07-08T12:08:14;13.07;;;7.35;;
41059;SDS011;26811;53.160;8.202;2023-07-08T12:13:22;14.05;;;7.28;;
41059;SDS011;26811;53.160;8.202;2023-07-08T12:18:24;11.60;;;6.97;;
41059;SDS011;26811;53.160;8.202;2023-07-08T12:23:28;11.95;;;7.22;;
41059;SDS011;26811;53.160;8.202;2023-07-08T12:28:29;11.32;;;6.68;;
41059;SDS011;26811;53.160;8.202;2023-07-08T12:33:33;9.18;;;6.53;;
41059;SDS011;26811;53.160;8.202;2023-07-08T12:38:35;16.27;;;7.05;;
41059;SDS011;26811;53.160;8.202;2023-07-08T12:43:38;12.65;;;6.90;;
41059;SDS011;26811;53.160;8.202;2023-07-08T12:48:39;10.38;;;6.93;;
41059;SDS011;26811;53.160;8.202;2023-07-08T12:53:41;13.50;;;6.97;;
41059;SDS011;26811;53.160;8.202;2023-07-08T12:58:46;11.77;;;6.90;;
41059;SDS011;26811;53.160;8.202;2023-07-08T13:03:50;13.98;;;6.93;;
41059;SDS011;26811;53.160;8.202;2023-07-08T13:08:54;16.13;;;6.90;;
41059;SDS011;26811;53.160;8.202;2023-07-08T13:14:03;12.45;;;7.28;;
41059;SDS011;26811;53.160;8.202;2023-07-08T13:19:06;11.18;;;7.05;;
41059;SDS011;26811;53.160;8.202;2023-07-08T13:24:11;12.80;;;7.35;;
41059;SDS011;26811;53.160;8.202;2023-07-08T13:29:13;12.15;;;7.38;;
41059;SDS011;26811;53.160;8.202;2023-07-08T13:34:19;18.40;;;7.47;;
41059;SDS011;26811;53.160;8.202;2023-07-08T13:39:27;12.70;;;7.35;;
41059;SDS011;26811;53.160;8.202;2023-07-08T13:44:33;12.85;;;8.13;;
41059;SDS011;26811;53.160;8.202;2023-07-08T13:49:39;15.38;;;7.68;;
41059;SDS011;26811;53.160;8.202;2023-07-08T13:54:47;13.50;;;7.40;;
41059;SDS011;26811;53.160;8.202;2023-07-08T13:59:48;14.85;;;7.40;;
41059;SDS011;26811;53.160;8.202;2023-07-08T14:04:49;11.05;;;7.28;;
41059;SDS011;26811;53.160;8.202;2023-07-08T14:09:51;15.27;;;7.55;;
41059;SDS011;26811;53.160;8.202;2023-07-08T14:14:52;13.20;;;8.10;;
41059;SDS011;26811;53.160;8.202;2023-07-08T14:19:53;18.13;;;7.90;;
41059;SDS011;26811;53.160;8.202;2023-07-08T14:24:54;16.23;;;7.80;;
41059;SDS011;26811;53.160;8.202;2023-07-08T14:29:55;17.58;;;7.95;;
41059;SDS011;26811;53.160;8.202;2023-07-08T14:34:56;13.25;;;7.63;;
41059;SDS011;26811;53.160;8.202;2023-07-08T14:40:00;15.65;;;9.20;;
41059;SDS011;26811;53.160;8.202;2023-07-08T14:45:12;15.38;;;7.88;;
41059;SDS011;26811;53.160;8.202;2023-07-08T14:50:14;15.57;;;8.20;;
41059;SDS011;26811;53.160;8.202;2023-07-08T14:55:15;15.65;;;7.38;;
41059;SDS011;26811;53.160;8.202;2023-07-08T15:00:17;12.98;;;7.38;;
41059;SDS011;26811;53.160;8.202;2023-07-08T15:05:23;16.65;;;7.78;;
41059;SDS011;26811;53.160;8.202;2023-07-08T15:10:27;13.48;;;7.93;;
41059;SDS011;26811;53.160;8.202;2023-07-08T15:15:30;16.25;;;7.65;;
41059;SDS011;26811;53.160;8.202;2023-07-08T15:20:36;12.95;;;7.22;;
41059;SDS011;26811;53.160;8.202;2023-07-08T15:25:36;13.38;;;7.78;;
41059;SDS011;26811;53.160;8.202;2023-07-08T15:30:37;16.30;;;8.00;;
41059;SDS011;26811;53.160;8.202;2023-07-08T15:35:38;13.13;;;7.45;;
41059;SDS011;26811;53.160;8.202;2023-07-08T15:40:38;15.63;;;7.55;;
41059;SDS011;26811;53.160;8.202;2023-07-08T15:45:45;12.73;;;8.23;;
41059;SDS011;26811;53.160;8.202;2023-07-08T15:50:46;17.98;;;8.15;;
41059;SDS011;26811;53.160;8.202;2023-07-08T15:55:50;13.50;;;7.80;;
41059;SDS011;26811;53.160;8.202;2023-07-08T16:00:54;16.25;;;8.07;;
41059;SDS011;26811;53.160;8.202;2023-07-08T16:05:58;13.32;;;7.88;;
41059;SDS011;26811;53.160;8.202;2023-07-08T16:11:00;14.93;;;7.90;;
41059;SDS011;26811;53.160;8.202;2023-07-08T16:16:04;17.25;;;8.15;;
41059;SDS011;26811;53.160;8.202;2023-07-08T16:21:05;13.10;;;8.25;;
41059;SDS011;26811;53.160;8.202;2023-07-08T16:26:06;11.98;;;7.20;;
41059;SDS011;26811;53.160;8.202;2023-07-08T16:36:20;15.70;;;8.10;;
41059;SDS011;26811;53.160;8.202;2023-07-08T16:41:25;15.00;;;8.32;;
41059;SDS011;26811;53.160;8.202;2023-07-08T16:46:29;14.77;;;7.90;;
41059;SDS011;26811;53.160;8.202;2023-07-08T16:51:32;13.95;;;7.93;;
41059;SDS011;26811;53.160;8.202;2023-07-08T16:56:34;15.00;;;8.45;;
41059;SDS011;26811;53.160;8.202;2023-07-08T17:01:35;14.45;;;8.45;;
41059;SDS011;26811;53.160;8.202;2023-07-08T17:06:35;15.30;;;8.07;;
41059;SDS011;26811;53.160;8.202;2023-07-08T17:16:36;13.00;;;8.23;;
41059;SDS011;26811;53.160;8.202;2023-07-08T17:21:38;16.63;;;8.50;;
41059;SDS011;26811;53.160;8.202;2023-07-08T17:31:39;18.03;;;8.13;;
41059;SDS011;26811;53.160;8.202;2023-07-08T17:41:40;23.47;;;12.07;;
41059;SDS011;26811;53.160;8.202;2023-07-08T17:51:41;20.37;;;10.87;;
41059;SDS011;26811;53.160;8.202;2023-07-08T17:56:43;16.90;;;9.13;;
41059;SDS011;26811;53.160;8.202;2023-07-08T18:01:46;16.15;;;8.45;;
41059;SDS011;26811;53.160;8.202;2023-07-08T18:11:48;17.47;;;8.53;;
41059;SDS011;26811;53.160;8.202;2023-07-08T18:16:49;17.13;;;8.85;;
41059;SDS011;26811;53.160;8.202;2023-07-08T18:21:53;17.08;;;8.68;;
41059;SDS011;26811;53.160;8.202;2023-07-08T18:26:54;14.63;;;8.75;;
41059;SDS011;26811;53.160;8.202;2023-07-08T18:31:55;17.13;;;9.60;;
41059;SDS011;26811;53.160;8.202;2023-07-08T18:36:55;15.80;;;9.37;;
41059;SDS011;26811;53.160;8.202;2023-07-08T18:41:56;25.87;;;9.57;;
41059;SDS011;26811;53.160;8.202;2023-07-08T18:46:56;18.23;;;10.00;;
41059;SDS011;26811;53.160;8.202;2023-07-08T18:51:57;17.55;;;9.43;;
41059;SDS011;26811;53.160;8.202;2023-07-08T18:56:58;14.43;;;9.30;;
41059;SDS011;26811;53.160;8.202;2023-07-08T19:01:58;17.10;;;10.73;;
41059;SDS011;26811;53.160;8.202;2023-07-08T19:06:59;16.80;;;9.87;;
41059;SDS011;26811;53.160;8.202;2023-07-08T19:12:00;17.15;;;10.65;;
41059;SDS011;26811;53.160;8.202;2023-07-08T19:17:00;18.47;;;11.00;;
41059;SDS011;26811;53.160;8.202;2023-07-08T19:22:01;19.07;;;10.23;;
41059;SDS011;26811;53.160;8.202;2023-07-08T19:27:02;15.95;;;9.75;;
41059;SDS011;26811;53.160;8.202;2023-07-08T19:32:03;15.55;;;10.20;;
41059;SDS011;26811;53.160;8.202;2023-07-08T19:37:05;15.57;;;10.32;;
41059;SDS011;26811;53.160;8.202;2023-07-08T19:42:13;15.63;;;10.55;;
41059;SDS011;26811;53.160;8.202;2023-07-08T19:47:17;19.30;;;10.60;;
41059;SDS011;26811;53.160;8.202;2023-07-08T19:52:18;15.03;;;9.93;;
41059;SDS011;26811;53.160;8.202;2023-07-08T19:57:18;17.57;;;10.63;;
41059;SDS011;26811;53.160;8.202;2023-07-08T20:02:19;21.93;;;9.90;;
41059;SDS011;26811;53.160;8.202;2023-07-08T20:07:19;23.00;;;10.80;;
41059;SDS011;26811;53.160;8.202;2023-07-08T20:12:20;17.47;;;10.73;;
41059;SDS011;26811;53.160;8.202;2023-07-08T20:17:20;20.07;;;10.63;;
41059;SDS011;26811;53.160;8.202;2023-07-08T20:22:21;18.07;;;10.80;;
41059;SDS011;26811;53.160;8.202;2023-07-08T20:27:23;17.97;;;10.77;;
41059;SDS011;26811;53.160;8.202;2023-07-08T20:32:27;19.10;;;10.60;;
41059;SDS011;26811;53.160;8.202;2023-07-08T20:37:27;18.93;;;10.63;;
41059;SDS011;26811;53.160;8.202;2023-07-08T20:42:28;21.43;;;12.27;;
41059;SDS011;26811;53.160;8.202;2023-07-08T20:47:28;16.40;;;10.03;;
41059;SDS011;26811;53.160;8.202;2023-07-08T20:52:29;14.40;;;10.27;;
41059;SDS011;26811;53.160;8.202;2023-07-08T20:57:29;17.17;;;10.53;;
41059;SDS011;26811;53.160;8.202;2023-07-08T21:02:30;19.37;;;10.77;;
41059;SDS011;26811;53.160;8.202;2023-07-08T21:07:30;18.50;;;10.73;;
41059;SDS011;26811;53.160;8.202;2023-07-08T21:12:31;18.47;;;10.73;;
41059;SDS011;26811;53.160;8.202;2023-07-08T21:17:32;18.95;;;10.50;;
41059;SDS011;26811;53.160;8.202;2023-07-08T21:22:35;21.90;;;11.13;;
41059;SDS011;26811;53.160;8.202;2023-07-08T21:27:37;17.85;;;10.90;;
41059;SDS011;26811;53.160;8.202;2023-07-08T21:32:37;15.43;;;9.77;;
41059;SDS011;26811;53.160;8.202;2023-07-08T21:37:38;19.73;;;10.57;;
41059;SDS011;26811;53.160;8.202;2023-07-08T21:42:52;15.95;;;10.07;;
41059;SDS011;26811;53.160;8.202;2023-07-08T21:47:52;17.40;;;11.13;;
41059;SDS011;26811;53.160;8.202;2023-07-08T21:52:55;18.70;;;10.97;;
41059;SDS011;26811;53.160;8.202;2023-07-08T21:58:00;16.67;;;10.63;;
41059;SDS011;26811;53.160;8.202;2023-07-08T22:03:01;16.13;;;10.63;;
41059;SDS011;26811;53.160;8.202;2023-07-08T22:08:01;21.77;;;11.27;;
41059;SDS011;26811;53.160;8.202;2023-07-08T22:13:03;17.67;;;10.77;;
41059;SDS011;26811;53.160;8.202;2023-07-08T22:18:04;17.90;;;11.67;;
41059;SDS011;26811;53.160;8.202;2023-07-08T22:23:06;22.90;;;10.83;;
41059;SDS011;26811;53.160;8.202;2023-07-08T22:28:10;19.48;;;11.02;;
41059;SDS011;26811;53.160;8.202;2023-07-08T22:33:13;16.67;;;10.90;;
41059;SDS011;26811;53.160;8.202;2023-07-08T22:38:15;18.58;;;11.30;;
41059;SDS011;26811;53.160;8.202;2023-07-08T22:48:21;22.77;;;11.93;;
41059;SDS011;26811;53.160;8.202;2023-07-08T22:53:25;22.15;;;12.13;;
41059;SDS011;26811;53.160;8.202;2023-07-08T22:58:34;26.08;;;11.98;;
41059;SDS011;26811;53.160;8.202;2023-07-08T23:03:35;19.77;;;11.70;;
41059;SDS011;26811;53.160;8.202;2023-07-08T23:08:36;18.88;;;12.05;;
41059;SDS011;26811;53.160;8.202;2023-07-08T23:13:37;28.23;;;12.43;;
41059;SDS011;26811;53.160;8.202;2023-07-08T23:18:46;19.92;;;12.60;;
41059;SDS011;26811;53.160;8.202;2023-07-08T23:23:49;22.60;;;12.82;;
41059;SDS011;26811;53.160;8.202;2023-07-08T23:28:52;23.00;;;12.75;;
41059;SDS011;26811;53.160;8.202;2023-07-08T23:33:54;21.55;;;12.63;;
41059;SDS011;26811;53.160;8.202;2023-07-08T23:38:54;23.40;;;13.00;;
41059;SDS011;26811;53.160;8.202;2023-07-08T23:43:55;20.50;;;12.98;;
41059;SDS011;26811;53.160;8.202;2023-07-08T23:48:56;26.20;;;13.93;;
41059;SDS011;26811;53.160;8.202;2023-07-08T23:53:59;22.08;;;13.05;;
41059;SDS011;26811;53.160;8.202;2023-07-08T23:58:59;20.67;;;13.05;;
